createdAt,value
2023-01-11T00:01:33.384Z,8.25
2023-01-11T00:04:00.203Z,8.30
2023-01-11T00:06:26.596Z,8.25
2023-01-11T00:08:52.930Z,8.27
2023-01-11T00:11:21.724Z,7.80
2023-01-11T00:13:48.020Z,7.80
2023-01-11T00:16:14.452Z,7.20
2023-01-11T00:18:41.084Z,7.57
2023-01-11T00:21:08.325Z,6.95
2023-01-11T00:23:36.249Z,6.47
2023-01-11T00:26:04.047Z,7.88
2023-01-11T00:28:30.491Z,7.40
2023-01-11T00:30:57.567Z,7.38
2023-01-11T00:33:24.302Z,6.70
2023-01-11T00:35:51.171Z,7.53
2023-01-11T00:38:38.031Z,7.30
2023-01-11T00:41:25.166Z,7.82
2023-01-11T00:44:10.961Z,7.28
2023-01-11T00:46:56.403Z,6.90
2023-01-11T00:49:22.870Z,6.88
2023-01-11T00:51:52.233Z,6.47
2023-01-11T00:54:18.543Z,6.60
2023-01-11T00:56:44.818Z,7.10
2023-01-11T00:59:11.118Z,6.68
2023-01-11T01:01:37.737Z,6.88
2023-01-11T01:04:04.288Z,6.95
2023-01-11T01:06:33.799Z,6.68
2023-01-11T01:09:00.725Z,6.13
2023-01-11T01:11:27.594Z,7.18
2023-01-11T01:14:12.648Z,6.60
2023-01-11T01:16:38.991Z,6.50
2023-01-11T01:19:05.345Z,6.65
2023-01-11T01:21:31.688Z,6.25
2023-01-11T01:23:57.981Z,7.13
2023-01-11T01:26:24.323Z,6.07
2023-01-11T01:28:50.672Z,6.03
2023-01-11T01:31:17.323Z,5.32
2023-01-11T01:33:43.671Z,6.00
2023-01-11T01:36:10.105Z,5.22
2023-01-11T01:38:36.394Z,5.13
2023-01-11T01:41:02.700Z,4.80
2023-01-11T01:44:04.443Z,5.10
2023-01-11T01:46:32.289Z,4.88
2023-01-11T01:49:03.666Z,5.03
2023-01-11T01:51:34.948Z,3.88
2023-01-11T01:54:05.159Z,4.95
2023-01-11T01:56:35.831Z,5.03
2023-01-11T01:59:08.931Z,4.72
2023-01-11T02:01:47.490Z,4.68
2023-01-11T02:04:34.373Z,4.53
2023-01-11T02:07:06.566Z,4.25
2023-01-11T02:09:39.478Z,4.78
2023-01-11T02:12:06.796Z,4.63
2023-01-11T02:14:33.621Z,4.63
2023-01-11T02:17:00.118Z,4.30
2023-01-11T02:19:36.179Z,3.72
2023-01-11T02:22:13.855Z,4.18
2023-01-11T02:24:56.581Z,4.05
2023-01-11T02:27:41.629Z,4.00
2023-01-11T02:30:20.281Z,4.25
2023-01-11T02:32:49.706Z,4.53
2023-01-11T02:35:20.470Z,4.10
2023-01-11T02:40:12.941Z,3.70
2023-01-11T02:43:01.241Z,3.88
2023-01-11T02:45:27.699Z,4.43
2023-01-11T02:48:05.167Z,5.05
2023-01-11T02:50:50.998Z,5.13
2023-01-11T02:53:36.585Z,4.90
2023-01-11T02:56:05.831Z,5.15
2023-01-11T02:58:34.305Z,4.95
2023-01-11T03:01:00.988Z,4.95
2023-01-11T03:03:30.345Z,5.53
2023-01-11T03:05:58.990Z,5.50
2023-01-11T03:08:32.639Z,6.05
2023-01-11T03:11:10.076Z,5.53
2023-01-11T03:14:14.961Z,5.85
2023-01-11T03:16:47.378Z,5.40
2023-01-11T03:19:13.640Z,5.63
2023-01-11T03:21:58.019Z,5.07
2023-01-11T03:24:43.074Z,5.88
2023-01-11T03:27:17.161Z,6.05
2023-01-11T03:29:49.374Z,6.38
2023-01-11T03:32:18.780Z,6.35
2023-01-11T03:34:48.157Z,6.30
2023-01-11T03:37:22.833Z,6.53
2023-01-11T03:39:54.209Z,5.78
2023-01-11T03:42:22.290Z,5.13
2023-01-11T03:44:52.917Z,3.75
2023-01-11T03:47:22.261Z,3.45
2023-01-11T03:49:53.129Z,3.97
2023-01-11T03:54:45.766Z,4.57
2023-01-11T03:57:25.735Z,5.10
2023-01-11T03:59:52.111Z,5.27
2023-01-11T04:02:26.284Z,4.63
2023-01-11T04:04:52.773Z,4.90
2023-01-11T04:07:19.294Z,4.20
2023-01-11T04:09:45.914Z,3.80
2023-01-11T04:12:12.215Z,3.80
2023-01-11T04:14:38.500Z,4.60
2023-01-11T04:17:05.093Z,4.90
2023-01-11T04:19:31.627Z,5.72
2023-01-11T04:21:57.937Z,5.68
2023-01-11T04:24:24.255Z,6.43
2023-01-11T04:26:50.647Z,6.57
2023-01-11T04:29:16.949Z,6.20
2023-01-11T04:31:43.343Z,5.65
2023-01-11T04:34:11.161Z,5.82
2023-01-11T04:36:37.456Z,6.07
2023-01-11T04:39:04.071Z,5.80
2023-01-11T04:41:49.149Z,5.80
2023-01-11T04:44:15.423Z,5.68
2023-01-11T04:46:41.791Z,5.50
2023-01-11T04:49:08.062Z,5.90
2023-01-11T04:51:34.444Z,6.00
2023-01-11T04:54:00.738Z,5.93
2023-01-11T04:56:29.182Z,5.70
2023-01-11T04:58:55.499Z,4.93
2023-01-11T05:01:21.796Z,5.10
2023-01-11T05:03:48.209Z,5.35
2023-01-11T05:06:15.193Z,5.50
2023-01-11T05:08:45.181Z,4.53
2023-01-11T05:11:11.525Z,3.87
2023-01-11T05:13:44.005Z,5.00
2023-01-11T05:16:10.284Z,4.75
2023-01-11T05:18:38.992Z,5.03
2023-01-11T05:21:06.472Z,5.43
2023-01-11T05:23:33.423Z,4.47
2023-01-11T05:25:59.727Z,4.53
2023-01-11T05:28:26.072Z,4.50
2023-01-11T05:30:53.380Z,4.13
2023-01-11T05:33:19.924Z,3.92
2023-01-11T05:35:46.229Z,3.90
2023-01-11T05:38:12.523Z,3.92
2023-01-11T05:40:41.584Z,3.45
2023-01-11T05:43:08.096Z,3.22
2023-01-11T05:45:36.934Z,3.40
2023-01-11T05:48:03.427Z,3.15
2023-01-11T05:50:29.804Z,3.50
2023-01-11T05:52:56.171Z,2.97
2023-01-11T05:55:22.479Z,3.10
2023-01-11T05:57:50.754Z,2.80
2023-01-11T06:00:17.192Z,2.63
2023-01-11T06:02:46.836Z,2.92
2023-01-11T06:05:13.234Z,2.72
2023-01-11T06:07:40.110Z,2.60
2023-01-11T06:10:06.717Z,3.20
2023-01-11T06:12:32.979Z,3.25
2023-01-11T06:14:59.389Z,2.50
2023-01-11T06:17:25.707Z,2.35
2023-01-11T06:19:52.008Z,2.30
2023-01-11T06:22:18.285Z,2.50
2023-01-11T06:24:44.634Z,2.30
2023-01-11T06:27:10.946Z,2.92
2023-01-11T06:29:37.354Z,3.13
2023-01-11T06:32:03.818Z,2.70
2023-01-11T06:34:32.743Z,1.83
2023-01-11T06:36:59.058Z,2.53
2023-01-11T06:39:25.383Z,2.80
2023-01-11T06:41:51.734Z,2.55
2023-01-11T06:44:18.092Z,2.33
2023-01-11T06:46:44.512Z,2.80
2023-01-11T06:49:13.992Z,2.35
2023-01-11T06:51:40.347Z,2.20
2023-01-11T06:54:06.783Z,2.20
2023-01-11T06:56:33.067Z,2.03
2023-01-11T06:58:59.404Z,1.98
2023-01-11T07:01:26.479Z,2.58
2023-01-11T07:03:53.042Z,2.60
2023-01-11T07:06:19.406Z,2.58
2023-01-11T07:08:45.673Z,1.80
2023-01-11T07:11:12.200Z,1.77
2023-01-11T07:13:38.568Z,2.28
2023-01-11T07:16:04.984Z,1.95
2023-01-11T07:18:34.839Z,2.40
2023-01-11T07:21:02.413Z,2.25
2023-01-11T07:23:28.729Z,2.17
2023-01-11T07:25:55.427Z,2.30
2023-01-11T07:28:21.785Z,2.10
2023-01-11T07:30:59.409Z,2.03
2023-01-11T07:33:26.532Z,2.47
2023-01-11T07:35:52.894Z,2.95
2023-01-11T07:38:19.509Z,2.28
2023-01-11T07:40:45.830Z,2.20
2023-01-11T07:43:15.022Z,3.00
2023-01-11T07:45:47.164Z,2.33
2023-01-11T07:48:14.595Z,2.25
2023-01-11T07:50:44.069Z,2.50
2023-01-11T07:53:11.053Z,2.10
2023-01-11T07:55:39.662Z,2.72
2023-01-11T07:58:06.852Z,3.05
2023-01-11T08:00:33.307Z,3.42
2023-01-11T08:03:00.253Z,3.22
2023-01-11T08:05:26.555Z,2.00
2023-01-11T08:07:52.943Z,2.30
2023-01-11T08:10:19.217Z,1.90
2023-01-11T08:13:05.184Z,2.92
2023-01-11T08:15:36.573Z,2.40
2023-01-11T08:18:03.667Z,2.42
2023-01-11T08:20:30.071Z,3.03
2023-01-11T08:22:56.553Z,2.53
2023-01-11T08:25:23.015Z,2.67
2023-01-11T08:27:49.385Z,2.60
2023-01-11T08:30:15.771Z,2.45
2023-01-11T08:32:42.088Z,2.45
2023-01-11T08:35:08.664Z,2.30
2023-01-11T08:37:35.022Z,2.00
2023-01-11T08:40:01.461Z,1.90
2023-01-11T08:42:27.815Z,2.60
2023-01-11T08:44:55.500Z,2.38
2023-01-11T08:47:22.410Z,2.10
2023-01-11T08:49:48.807Z,2.58
2023-01-11T08:52:15.180Z,2.15
2023-01-11T08:54:41.936Z,2.40
2023-01-11T08:57:08.558Z,2.38
2023-01-11T08:59:34.822Z,2.42
2023-01-11T09:02:02.739Z,2.78
2023-01-11T09:04:29.095Z,2.90
2023-01-11T09:06:55.607Z,3.10
2023-01-11T09:09:22.060Z,2.58
2023-01-11T09:11:54.433Z,2.83
2023-01-11T09:14:21.508Z,3.20
2023-01-11T09:16:48.845Z,2.88
2023-01-11T09:19:15.251Z,2.78
2023-01-11T09:21:41.576Z,2.50
2023-01-11T09:24:08.032Z,3.05
2023-01-11T09:26:35.722Z,3.40
2023-01-11T09:29:02.118Z,2.63
2023-01-11T09:31:28.488Z,2.35
2023-01-11T09:33:55.155Z,2.75
2023-01-11T09:36:22.727Z,2.63
2023-01-11T09:38:50.315Z,3.42
2023-01-11T09:41:36.926Z,3.00
2023-01-11T09:44:16.121Z,3.28
2023-01-11T09:46:46.203Z,3.17
2023-01-11T09:49:23.041Z,3.22
2023-01-11T09:51:51.452Z,3.72
2023-01-11T09:54:20.890Z,2.80
2023-01-11T09:56:52.248Z,2.20
2023-01-11T09:59:27.030Z,3.33
2023-01-11T10:02:05.496Z,2.60
2023-01-11T10:04:55.308Z,2.67
2023-01-11T10:07:43.278Z,2.08
2023-01-11T10:18:40.220Z,3.22
2023-01-11T10:21:58.277Z,2.10
2023-01-11T10:24:32.250Z,2.08
2023-01-11T10:27:02.142Z,2.67
2023-01-11T10:29:47.452Z,2.50
2023-01-11T10:32:37.116Z,2.63
2023-01-11T10:35:07.470Z,2.50
2023-01-11T10:38:02.189Z,2.35
2023-01-11T10:40:39.250Z,2.20
2023-01-11T10:43:25.935Z,2.05
2023-01-11T10:48:39.014Z,2.13
2023-01-11T10:51:05.528Z,2.13
2023-01-11T10:53:36.963Z,2.45
2023-01-11T10:56:22.143Z,2.05
2023-01-11T10:59:17.963Z,2.40
2023-01-11T11:02:05.418Z,2.08
2023-01-11T11:04:50.460Z,2.03
2023-01-11T11:07:17.895Z,2.15
2023-01-11T11:10:05.199Z,2.47
2023-01-11T11:15:56.962Z,1.90
2023-01-11T11:18:33.943Z,2.08
2023-01-11T11:21:38.554Z,1.90
2023-01-11T11:24:34.551Z,2.20
2023-01-11T11:27:20.068Z,2.50
2023-01-11T11:29:53.723Z,2.55
2023-01-11T11:32:59.132Z,1.95
2023-01-11T11:35:32.756Z,2.15
2023-01-11T11:37:59.142Z,2.72
2023-01-11T11:40:31.803Z,2.92
2023-01-11T11:43:20.088Z,3.05
2023-01-11T11:46:06.571Z,2.47
2023-01-11T11:48:34.333Z,2.22
2023-01-11T11:51:03.065Z,3.30
2023-01-11T11:53:36.845Z,3.80
2023-01-11T11:56:22.806Z,4.30
2023-01-11T11:58:49.403Z,4.85
2023-01-11T12:01:39.811Z,4.93
2023-01-11T12:06:32.972Z,5.72
2023-01-11T12:09:02.268Z,7.65
2023-01-11T12:11:40.615Z,5.60
2023-01-11T12:14:15.452Z,7.47
2023-01-11T12:16:42.880Z,3.30
2023-01-11T12:19:25.188Z,2.05
2023-01-11T12:21:51.922Z,2.33
2023-01-11T12:24:23.768Z,2.10
2023-01-11T12:26:59.096Z,2.17
2023-01-11T12:29:34.484Z,2.78
2023-01-11T12:32:12.845Z,2.15
2023-01-11T12:35:02.435Z,2.63
2023-01-11T12:37:47.429Z,2.13
2023-01-11T12:40:25.739Z,2.58
2023-01-11T12:43:02.903Z,1.90
2023-01-11T12:45:52.518Z,2.55
2023-01-11T12:48:32.183Z,2.42
2023-01-11T12:51:10.539Z,2.17
2023-01-11T12:53:40.042Z,2.10
2023-01-11T12:56:24.743Z,2.45
2023-01-11T12:58:54.172Z,2.58
2023-01-11T13:01:24.381Z,2.90
2023-01-11T13:03:50.858Z,2.63
2023-01-11T13:06:21.068Z,2.20
2023-01-11T13:08:59.470Z,2.10
2023-01-11T13:11:38.099Z,2.35
2023-01-11T13:14:12.447Z,2.33
2023-01-11T13:16:58.047Z,2.00
2023-01-11T13:19:32.823Z,1.80
2023-01-11T13:22:04.591Z,1.80
2023-01-11T13:24:31.901Z,2.22
2023-01-11T13:27:00.300Z,2.03
2023-01-11T13:29:40.942Z,1.73
2023-01-11T13:32:11.655Z,2.33
2023-01-11T13:34:43.926Z,2.03
2023-01-11T13:37:22.936Z,2.08
2023-01-11T13:39:56.914Z,2.42
2023-01-11T13:42:27.556Z,2.13
2023-01-11T13:45:07.079Z,2.17
2023-01-11T13:47:36.658Z,3.20
2023-01-11T13:50:12.373Z,2.30
2023-01-11T13:52:57.527Z,2.20
2023-01-11T13:55:36.256Z,2.60
2023-01-11T13:58:18.381Z,1.80
2023-01-11T14:01:03.352Z,2.03
2023-01-11T14:03:48.010Z,2.40
2023-01-11T14:06:26.953Z,2.05
2023-01-11T14:08:53.274Z,2.38
2023-01-11T14:11:27.130Z,3.17
2023-01-11T14:14:15.689Z,2.33
2023-01-11T14:16:44.886Z,1.88
2023-01-11T14:19:17.240Z,3.00
2023-01-11T14:22:02.386Z,2.58
2023-01-11T14:24:30.638Z,2.65
2023-01-11T14:26:59.945Z,2.70
2023-01-11T14:29:50.203Z,2.22
2023-01-11T14:32:16.527Z,2.47
2023-01-11T14:35:01.688Z,2.88
2023-01-11T14:37:54.768Z,2.08
2023-01-11T14:40:27.295Z,3.05
2023-01-11T14:42:56.676Z,2.53
2023-01-11T14:45:25.970Z,2.45
2023-01-11T14:47:59.079Z,2.05
2023-01-11T14:50:28.408Z,2.63
2023-01-11T14:52:57.988Z,2.00
2023-01-11T14:55:27.289Z,2.33
2023-01-11T14:57:58.654Z,2.50
2023-01-11T15:00:24.938Z,2.80
2023-01-11T15:02:54.197Z,2.45
2023-01-11T15:05:35.633Z,2.67
2023-01-11T15:08:10.781Z,2.63
2023-01-11T15:10:37.086Z,2.15
2023-01-11T15:13:07.140Z,2.63
2023-01-11T15:15:52.674Z,2.28
2023-01-11T15:18:21.409Z,2.45
2023-01-11T15:20:50.827Z,1.60
2023-01-11T15:23:17.730Z,3.10
2023-01-11T15:25:47.710Z,2.42
2023-01-11T15:28:32.135Z,1.70
2023-01-11T15:30:58.521Z,2.80
2023-01-11T15:33:25.618Z,2.60
2023-01-11T15:35:55.100Z,2.33
2023-01-11T15:38:21.398Z,2.38
2023-01-11T15:40:47.949Z,2.42
2023-01-11T15:43:28.298Z,2.45
2023-01-11T15:46:22.788Z,2.28
2023-01-11T15:48:55.094Z,2.67
2023-01-11T15:51:30.471Z,3.60
2023-01-11T15:54:13.639Z,2.10
2023-01-11T15:57:03.507Z,3.13
2023-01-11T15:59:29.811Z,2.53
2023-01-11T16:02:14.749Z,2.60
2023-01-11T16:04:41.099Z,2.35
2023-01-11T16:07:26.408Z,2.20
2023-01-11T16:10:01.448Z,2.03
2023-01-11T16:12:27.823Z,2.40
2023-01-11T16:15:06.236Z,2.35
2023-01-11T16:17:32.622Z,2.40
2023-01-11T16:20:13.451Z,2.20
2023-01-11T16:22:39.743Z,2.22
2023-01-11T16:25:07.901Z,1.98
2023-01-11T16:27:34.857Z,1.83
2023-01-11T16:30:01.447Z,2.58
2023-01-11T16:32:32.526Z,2.38
2023-01-11T16:35:02.132Z,3.00
2023-01-11T16:37:31.760Z,1.75
2023-01-11T16:40:02.251Z,2.15
2023-01-11T16:42:31.823Z,2.38
2023-01-11T16:44:59.962Z,2.25
2023-01-11T16:47:26.515Z,1.63
2023-01-11T16:50:11.606Z,1.55
2023-01-11T16:52:40.611Z,2.00
2023-01-11T16:55:14.149Z,1.70
2023-01-11T16:57:42.529Z,2.60
2023-01-11T17:00:20.877Z,1.73
2023-01-11T17:02:48.910Z,1.70
2023-01-11T17:05:19.223Z,1.88
2023-01-11T17:07:45.803Z,2.10
2023-01-11T17:10:14.833Z,2.28
2023-01-11T17:12:43.536Z,1.98
2023-01-11T17:15:25.003Z,2.03
2023-01-11T17:17:51.381Z,2.08
2023-01-11T17:20:27.186Z,1.65
2023-01-11T17:22:53.926Z,1.92
2023-01-11T17:25:29.558Z,2.58
2023-01-11T17:28:05.301Z,1.80
2023-01-11T17:30:32.471Z,1.77
2023-01-11T17:33:01.877Z,2.00
2023-01-11T17:35:32.582Z,1.75
2023-01-11T17:38:00.275Z,2.10
2023-01-11T17:40:29.434Z,1.90
2023-01-11T17:43:17.996Z,2.30
2023-01-11T17:46:13.619Z,3.10
2023-01-11T17:48:50.722Z,2.10
2023-01-11T17:51:23.115Z,2.10
2023-01-11T17:53:50.428Z,2.13
2023-01-11T17:56:32.106Z,1.55
2023-01-11T17:59:17.791Z,2.13
2023-01-11T18:01:51.126Z,1.92
2023-01-11T18:04:23.442Z,2.05
2023-01-11T18:06:50.952Z,2.25
2023-01-11T18:09:26.538Z,2.00
2023-01-11T18:11:54.272Z,2.13
2023-01-11T18:14:25.183Z,2.42
2023-01-11T18:19:30.599Z,2.00
2023-01-11T18:21:57.113Z,2.10
2023-01-11T18:24:23.427Z,2.47
2023-01-11T18:27:05.032Z,2.30
2023-01-11T18:29:37.360Z,2.33
2023-01-11T18:32:04.431Z,2.25
2023-01-11T18:34:31.444Z,2.05
2023-01-11T18:37:01.716Z,2.00
2023-01-11T18:39:28.113Z,1.98
2023-01-11T18:42:09.703Z,2.22
2023-01-11T18:44:36.851Z,2.45
2023-01-11T18:47:12.419Z,2.53
2023-01-11T18:49:38.873Z,2.65
2023-01-11T18:52:05.428Z,2.15
2023-01-11T18:54:31.786Z,2.03
2023-01-11T18:56:58.136Z,1.98
2023-01-11T18:59:24.442Z,1.80
2023-01-11T19:01:58.982Z,2.20
2023-01-11T19:04:37.087Z,2.03
2023-01-11T19:07:03.433Z,1.40
2023-01-11T19:09:29.820Z,2.03
2023-01-11T19:11:56.197Z,1.90
2023-01-11T19:14:22.606Z,1.70
2023-01-11T19:16:49.016Z,1.95
2023-01-11T19:19:15.416Z,1.75
2023-01-11T19:21:41.861Z,1.88
2023-01-11T19:24:08.348Z,1.98
2023-01-11T19:26:34.844Z,1.80
2023-01-11T19:29:01.320Z,1.92
2023-01-11T19:31:27.642Z,2.13
2023-01-11T19:33:53.939Z,1.85
2023-01-11T19:36:20.341Z,2.20
2023-01-11T19:38:46.772Z,2.80
2023-01-11T19:41:15.491Z,2.40
2023-01-11T19:43:46.875Z,2.13
2023-01-11T19:46:19.590Z,2.00
2023-01-11T19:48:52.265Z,2.03
2023-01-11T19:51:18.732Z,2.63
2023-01-11T19:53:45.025Z,2.60
2023-01-11T19:56:11.379Z,2.45
2023-01-11T19:58:38.188Z,1.75
2023-01-11T20:01:11.441Z,2.30
2023-01-11T20:03:41.710Z,1.80
2023-01-11T20:06:08.878Z,1.63
2023-01-11T20:08:40.171Z,2.92
2023-01-11T20:11:07.455Z,1.95
2023-01-11T20:13:33.973Z,2.75
2023-01-11T20:16:04.504Z,2.10
2023-01-11T20:18:30.905Z,2.28
2023-01-11T20:20:57.263Z,2.00
2023-01-11T20:23:23.814Z,2.47
2023-01-11T20:25:50.244Z,2.50
2023-01-11T20:28:17.778Z,2.55
2023-01-11T20:30:44.238Z,2.17
2023-01-11T20:33:10.683Z,1.52
2023-01-11T20:35:37.499Z,2.28
2023-01-11T20:38:03.842Z,2.17
2023-01-11T20:40:30.245Z,2.58
2023-01-11T20:42:56.633Z,2.25
2023-01-11T20:45:23.109Z,1.98
2023-01-11T20:47:49.527Z,2.42
2023-01-11T20:50:16.103Z,2.28
2023-01-11T20:52:42.629Z,2.22
2023-01-11T20:55:09.414Z,2.38
2023-01-11T20:57:35.730Z,2.05
2023-01-11T21:00:02.087Z,2.55
2023-01-11T21:02:28.708Z,2.53
2023-01-11T21:04:56.089Z,2.47
2023-01-11T21:07:22.474Z,2.15
2023-01-11T21:09:48.796Z,2.45
2023-01-11T21:12:17.539Z,2.50
2023-01-11T21:14:46.403Z,2.80
2023-01-11T21:17:12.779Z,2.28
2023-01-11T21:19:39.183Z,2.72
2023-01-11T21:22:05.514Z,2.60
2023-01-11T21:24:31.875Z,2.90
2023-01-11T21:26:58.383Z,2.47
2023-01-11T21:29:24.756Z,2.65
2023-01-11T21:31:51.052Z,2.72
2023-01-11T21:34:17.431Z,2.40
2023-01-11T21:36:43.784Z,2.13
2023-01-11T21:39:11.803Z,2.38
2023-01-11T21:41:58.211Z,2.38
2023-01-11T21:44:31.024Z,2.47
2023-01-11T21:46:57.671Z,2.25
2023-01-11T21:49:24.397Z,2.60
2023-01-11T21:51:51.740Z,3.00
2023-01-11T21:54:18.991Z,2.42
2023-01-11T21:56:48.924Z,2.63
2023-01-11T21:59:15.866Z,1.73
2023-01-11T22:01:42.965Z,2.00
2023-01-11T22:04:10.736Z,2.22
2023-01-11T22:06:37.983Z,2.45
2023-01-11T22:09:05.006Z,2.15
2023-01-11T22:11:33.212Z,2.30
2023-01-11T22:14:00.101Z,2.42
2023-01-11T22:16:26.463Z,2.00
2023-01-11T22:18:52.808Z,2.05
2023-01-11T22:21:19.647Z,2.50
2023-01-11T22:23:46.910Z,2.40
2023-01-11T22:26:14.519Z,1.80
2023-01-11T22:29:01.716Z,1.98
2023-01-11T22:31:29.286Z,2.30
2023-01-11T22:33:55.739Z,2.50
2023-01-11T22:36:23.207Z,2.30
2023-01-11T22:38:49.574Z,2.00
2023-01-11T22:41:18.327Z,2.50
2023-01-11T22:43:45.084Z,1.55
2023-01-11T22:46:15.559Z,2.28
2023-01-11T22:48:42.293Z,2.10
2023-01-11T22:51:09.621Z,2.05
2023-01-11T22:53:56.629Z,2.55
2023-01-11T22:56:25.726Z,1.70
2023-01-11T22:58:52.817Z,2.38
2023-01-11T23:01:22.558Z,1.75
2023-01-11T23:03:49.583Z,1.88
2023-01-11T23:06:20.125Z,1.98
2023-01-11T23:08:46.882Z,2.15
2023-01-11T23:11:35.563Z,2.25
2023-01-11T23:14:05.698Z,2.47
2023-01-11T23:16:32.567Z,2.20
2023-01-11T23:18:58.975Z,2.70
2023-01-11T23:21:25.348Z,2.00
2023-01-11T23:23:51.711Z,2.28
2023-01-11T23:26:18.282Z,1.90
2023-01-11T23:28:48.441Z,2.40
2023-01-11T23:31:19.252Z,2.40
2023-01-11T23:36:12.039Z,2.60
2023-01-11T23:38:38.698Z,2.05
2023-01-11T23:41:24.766Z,3.25
2023-01-11T23:43:51.192Z,2.28
2023-01-11T23:46:36.462Z,2.42
2023-01-11T23:49:03.548Z,2.47
2023-01-11T23:51:29.989Z,2.33
2023-01-11T23:53:56.409Z,2.25
2023-01-11T23:56:22.809Z,2.03
2023-01-11T23:58:49.323Z,2.40
